Terminal Aerodrome Forecast
Issued by NWS Blacksburg, VA

Current Version | Previous Version | Text Only | Print | Product List | Glossary Off
Versions: 1 2 3 4 5 6 7 8 9 10 11 12 13 14 15 16 17 18

000
FTUS41 KRNK 222001 CCA
TAFBLF
TAF COR
KBLF 222001Z 2220/2318 VRB03KT P6SM SCT015 BKN025
     FM230100 31011KT P6SM BKN025
     FM230700 30012KT P6SM SCT020
     FM231400 30013G25KT P6SM SKC=

USA.gov is the U.S. government's official web portal to all federal, state and local government web resources and services.